Time;durP1;ratioP1;P1;durP2;ratioP2;P2;SDS_P1;SDS_P2;PMS_P1;PMS_P2;Temp;Humidity;BMP_temperature;BMP_pressure;BME280_temperature;BME280_humidity;BME280_pressure;Samples;Min_cycle;Max_cycle;Signal;HPM_P1;HPM_P2
2022/11/03 00:03:26;;;;;;;12.98;4.20;;;;;;;5.50;64.98;100247.34;10363762;28;20576;-65
2022/11/03 00:08:27;;;;;;;10.40;3.70;;;;;;;5.47;65.25;100231.88;10353512;28;20050;-64
2022/11/03 00:13:29;;;;;;;14.43;4.30;;;;;;;5.39;65.03;100233.88;10354709;28;20436;-63
2022/11/03 00:18:31;;;;;;;14.43;4.55;;;;;;;5.39;65.32;100222.69;10361576;28;20069;-63
2022/11/03 00:23:35;;;;;;;16.88;4.57;;;;;;;5.37;65.35;100230.47;10363558;28;20065;-63
2022/11/03 00:28:39;;;;;;;17.77;6.45;;;;;;;5.21;65.60;100233.63;10358632;28;20054;-63
2022/11/03 00:33:41;;;;;;;13.48;4.90;;;;;;;5.16;65.48;100235.53;10359141;28;20057;-64
2022/11/03 00:38:44;;;;;;;18.25;4.68;;;;;;;5.14;65.64;100211.41;10356607;28;20061;-64
2022/11/03 00:43:46;;;;;;;9.93;4.03;;;;;;;5.13;65.92;100210.56;10373372;28;20344;-65
2022/11/03 00:48:49;;;;;;;11.50;4.40;;;;;;;5.18;65.39;100198.31;10356570;28;20482;-64
2022/11/03 00:53:52;;;;;;;14.13;3.95;;;;;;;5.17;65.59;100203.53;10360801;28;20505;-63
2022/11/03 00:58:56;;;;;;;10.63;3.67;;;;;;;5.17;65.75;100209.56;10364967;28;20348;-64
2022/11/03 01:09:21;;;;;;;14.27;4.78;;;;;;;5.06;65.51;100203.91;10347489;28;20554;-64
2022/11/03 01:14:25;;;;;;;9.73;3.55;;;;;;;5.03;65.87;100204.00;10354425;28;20046;-64
2022/11/03 01:19:26;;;;;;;13.73;3.63;;;;;;;5.00;65.74;100188.56;10358982;28;20070;-64
2022/11/03 01:24:28;;;;;;;13.52;4.57;;;;;;;5.02;65.63;100183.31;10358592;28;20279;-64
2022/11/03 01:29:30;;;;;;;10.88;4.25;;;;;;;4.95;65.57;100177.47;10372084;28;20060;-65
2022/11/03 01:34:31;;;;;;;11.15;3.80;;;;;;;4.94;65.98;100172.34;10361792;28;20050;-63
2022/11/03 01:39:33;;;;;;;9.43;4.15;;;;;;;4.99;65.80;100170.44;10345688;28;20520;-65
2022/11/03 01:44:46;;;;;;;12.02;4.30;;;;;;;4.75;66.47;100166.06;10350466;28;20046;-65
2022/11/03 01:50:06;;;;;;;17.20;4.63;;;;;;;4.62;66.09;100163.88;10348886;28;20053;-64
2022/11/03 01:55:12;;;;;;;11.57;4.70;;;;;;;4.60;66.24;100163.06;10348028;28;20494;-63
2022/11/03 02:00:14;;;;;;;13.48;4.45;;;;;;;4.64;65.94;100158.63;10361409;28;20054;-64
2022/11/03 02:05:18;;;;;;;14.30;4.30;;;;;;;4.61;66.23;100150.97;10394414;28;20050;-63
2022/11/03 02:10:20;;;;;;;12.35;4.22;;;;;;;4.61;66.02;100136.28;10350331;28;20053;-64
2022/11/03 02:15:22;;;;;;;14.15;3.90;;;;;;;4.57;66.38;100147.66;10353384;28;20053;-64
2022/11/03 02:20:27;;;;;;;12.35;4.10;;;;;;;4.53;66.24;100145.19;10349445;28;20060;-63
2022/11/03 02:25:46;;;;;;;21.42;5.20;;;;;;;4.48;66.46;100129.78;10348785;28;20109;-64
2022/11/03 02:30:47;;;;;;;14.57;5.05;;;;;;;4.54;66.52;100119.25;10357372;28;20054;-64
2022/11/03 02:36:02;;;;;;;27.33;5.40;;;;;;;4.46;66.45;100107.44;10354091;28;20852;-64
2022/11/03 02:41:07;;;;;;;22.42;5.57;;;;;;;4.39;66.68;100106.75;10345851;28;20061;-63
2022/11/03 02:46:12;;;;;;;14.25;5.10;;;;;;;4.41;66.64;100097.19;10356821;28;20042;-64
2022/11/03 02:51:14;;;;;;;13.85;4.57;;;;;;;4.36;66.53;100083.56;10345786;28;20054;-64
2022/11/03 02:56:22;;;;;;;11.18;4.40;;;;;;;4.31;66.56;100082.03;10347168;28;20092;-64
2022/11/03 03:01:45;;;;;;;46.25;5.45;;;;;;;4.15;66.47;100078.25;10353846;28;20457;-64
2022/11/03 03:06:54;;;;;;;26.90;4.97;;;;;;;4.17;66.96;100076.44;10364039;28;20168;-64
2022/11/03 03:11:57;;;;;;;27.08;4.70;;;;;;;4.27;66.80;100062.31;10358602;28;20406;-64
2022/11/03 03:17:04;;;;;;;96.63;7.07;;;;;;;4.29;66.63;100066.53;10360910;28;20053;-64
2022/11/03 03:22:20;;;;;;;187.88;9.23;;;;;;;4.19;66.82;100056.53;10352727;28;20050;-64
2022/11/03 03:27:26;;;;;;;54.53;5.25;;;;;;;4.19;66.76;100043.59;10378836;28;20073;-64
2022/11/03 03:32:32;;;;;;;34.00;5.10;;;;;;;4.19;66.47;100043.59;10385690;28;20049;-65
2022/11/03 03:37:37;;;;;;;19.38;4.50;;;;;;;4.08;66.65;100040.50;10350500;28;20052;-64
2022/11/03 03:42:40;;;;;;;86.15;5.70;;;;;;;4.09;66.44;100024.09;10370820;28;20048;-64
2022/11/03 03:47:42;;;;;;;9.00;3.72;;;;;;;4.08;66.57;100018.06;10358765;28;20053;-63
2022/11/03 03:52:44;;;;;;;8.27;4.28;;;;;;;4.04;66.29;100020.78;10358969;28;20050;-63
2022/11/03 03:57:45;;;;;;;7.88;4.00;;;;;;;4.05;66.62;100019.91;10362505;28;20516;-63
2022/11/03 04:02:47;;;;;;;9.93;3.80;;;;;;;4.08;66.41;100015.47;10357991;28;20046;-64
2022/11/03 04:07:49;;;;;;;39.85;6.00;;;;;;;4.05;66.26;100015.56;10361970;28;20297;-64
2022/11/03 04:23:31;;;;;;;115.13;6.28;;;;;;;3.84;66.71;100001.53;10350484;28;20197;-63
2022/11/03 04:28:33;;;;;;;159.00;6.93;;;;;;;3.65;66.98;99996.97;10361249;28;20862;-64
2022/11/03 04:33:34;;;;;;;187.65;7.22;;;;;;;3.61;67.36;99993.63;10354375;28;20046;-63
2022/11/03 04:38:36;;;;;;;252.10;9.43;;;;;;;3.65;67.13;99979.72;10350146;28;20042;-64
2022/11/03 04:43:38;;;;;;;94.32;5.80;;;;;;;3.69;67.32;99980.47;10351462;28;20049;-63
2022/11/03 04:48:40;;;;;;;178.68;9.05;;;;;;;3.70;67.10;99975.25;10349820;28;20054;-64
2022/11/03 04:54:17;;;;;;;159.63;8.18;;;;;;;3.50;67.39;99972.41;10349028;28;20069;-63
2022/11/03 04:59:18;;;;;;;79.50;6.10;;;;;;;3.59;67.23;99958.38;10348475;28;20050;-64
2022/11/03 05:04:20;;;;;;;105.05;7.45;;;;;;;3.52;67.16;99949.94;10372348;28;20053;-62
2022/11/03 05:09:27;;;;;;;14.10;3.95;;;;;;;3.55;67.29;99938.69;10382267;28;20057;-63
2022/11/03 05:14:31;;;;;;;14.35;4.82;;;;;;;3.64;67.06;99939.22;10359715;28;20065;-63
2022/11/03 05:19:39;;;;;;;63.80;5.82;;;;;;;3.68;67.27;99929.66;10347941;28;20556;-63
2022/11/03 05:24:41;;;;;;;140.80;8.73;;;;;;;3.70;67.18;99930.44;10365192;28;20058;-63
2022/11/03 05:29:43;;;;;;;272.67;9.65;;;;;;;3.65;67.22;99924.56;10367235;28;20054;-63
2022/11/03 05:34:47;;;;;;;37.30;5.50;;;;;;;3.71;67.02;99916.59;10397627;28;20057;-64
2022/11/03 05:39:50;;;;;;;254.20;11.30;;;;;;;3.55;67.15;99899.88;10347311;28;20065;-63
2022/11/03 05:44:51;;;;;;;209.27;11.02;;;;;;;3.49;67.09;99894.91;10370770;28;20049;-63
2022/11/03 05:50:00;;;;;;;38.38;5.03;;;;;;;3.36;67.14;99896.19;10347119;28;20046;-63
2022/11/03 05:55:02;;;;;;;11.63;4.80;;;;;;;3.25;67.42;99890.50;10358741;28;20053;-63
2022/11/03 06:00:20;;;;;;;6.78;4.57;;;;;;;3.22;67.44;99888.00;10353596;28;20092;-63
2022/11/03 06:05:24;;;;;;;31.33;5.15;;;;;;;3.36;67.32;99888.41;10348968;28;20041;-63
2022/11/03 06:10:30;;;;;;;25.42;5.53;;;;;;;3.43;67.18;99888.22;10366183;28;20052;-64
2022/11/03 06:15:35;;;;;;;80.43;7.45;;;;;;;3.45;67.04;99882.97;10346279;28;20133;-64
2022/11/03 06:20:38;;;;;;;36.05;4.70;;;;;;;3.41;67.36;99887.41;10348895;28;20054;-64
2022/11/03 06:25:42;;;;;;;81.72;6.95;;;;;;;3.48;66.97;99878.56;10351726;28;20069;-65
2022/11/03 06:30:45;;;;;;;10.07;4.43;;;;;;;3.51;66.95;99862.09;10359070;28;20111;-66
2022/11/03 06:35:49;;;;;;;5.55;4.13;;;;;;;3.39;66.66;99863.34;10358192;28;20046;-66
2022/11/03 06:40:52;;;;;;;8.30;4.03;;;;;;;3.25;66.88;99851.75;10345537;28;20046;-66
2022/11/03 06:45:57;;;;;;;7.60;4.28;;;;;;;3.39;67.29;99850.41;10362414;28;20437;-66
2022/11/03 06:50:59;;;;;;;9.52;3.90;;;;;;;3.65;66.81;99847.84;10352181;28;20409;-66
2022/11/03 06:56:01;;;;;;;8.88;3.60;;;;;;;3.86;66.59;99846.31;10360279;28;20072;-66
2022/11/03 07:01:13;;;;;;;6.82;4.40;;;;;;;4.01;66.47;99845.75;10350439;28;20552;-66
2022/11/03 07:06:23;;;;;;;8.95;4.85;;;;;;;4.07;66.13;99840.38;10383412;28;20414;-66
2022/11/03 07:11:27;;;;;;;6.75;4.63;;;;;;;4.30;65.84;99843.00;10363549;28;20050;-66
2022/11/03 07:16:34;;;;;;;7.07;4.45;;;;;;;4.56;65.62;99836.88;10385031;28;20049;-68
2022/11/03 07:21:47;;;;;;;9.18;5.18;;;;;;;4.82;65.45;99807.44;10367415;28;20066;-67
2022/11/03 07:26:58;;;;;;;11.85;4.93;;;;;;;4.92;65.70;99798.41;10363014;28;20417;-66
2022/11/03 07:32:01;;;;;;;8.40;4.72;;;;;;;5.17;64.90;99801.69;10375894;28;20512;-67
2022/11/03 07:37:02;;;;;;;6.95;4.53;;;;;;;5.27;64.87;99795.22;10346977;28;20080;-66
2022/11/03 07:42:14;;;;;;;8.82;5.22;;;;;;;5.49;64.79;99794.28;10361836;28;20061;-66
2022/11/03 07:47:25;;;;;;;11.30;7.60;;;;;;;5.74;64.55;99764.75;10351426;28;20045;-66
2022/11/03 07:52:26;;;;;;;16.55;5.93;;;;;;;5.85;65.02;99759.94;10353175;28;20418;-66
2022/11/03 07:57:30;;;;;;;11.75;5.53;;;;;;;5.80;64.55;99746.34;10360835;28;20053;-65
2022/11/03 08:02:35;;;;;;;8.60;4.65;;;;;;;5.55;64.90;99743.94;10361164;28;20815;-66
2022/11/03 08:07:37;;;;;;;10.60;4.28;;;;;;;5.60;64.99;99747.16;10359399;28;20050;-66
2022/11/03 08:12:38;;;;;;;11.90;5.75;;;;;;;5.50;65.07;99744.13;10350833;28;20053;-66
2022/11/03 08:17:40;;;;;;;10.68;5.25;;;;;;;5.80;65.21;99715.19;10378690;28;20096;-66
2022/11/03 08:22:42;;;;;;;15.13;5.60;;;;;;;6.03;65.31;99708.06;10350959;28;20316;-66
2022/11/03 08:28:04;;;;;;;10.68;4.80;;;;;;;6.22;65.04;99705.47;10358021;28;20255;-66
2022/11/03 08:33:05;;;;;;;19.13;6.97;;;;;;;6.62;65.18;99707.94;10350654;28;20053;-66
2022/11/03 08:38:07;;;;;;;14.77;6.50;;;;;;;6.77;64.66;99702.03;10366725;28;20053;-67
2022/11/03 08:43:10;;;;;;;15.70;6.05;;;;;;;6.80;64.61;99698.41;10360406;28;20049;-66
2022/11/03 08:48:12;;;;;;;11.20;5.63;;;;;;;6.92;64.72;99706.47;10352337;28;20057;-66
2022/11/03 08:53:14;;;;;;;14.48;6.50;;;;;;;7.00;64.50;99693.94;10355339;28;20588;-67
2022/11/03 08:58:15;;;;;;;12.32;6.50;;;;;;;7.25;64.63;99697.94;10364811;28;20053;-66
2022/11/03 09:03:17;;;;;;;14.13;6.75;;;;;;;7.51;64.30;99692.28;10349645;28;20054;-66
2022/11/03 09:08:19;;;;;;;18.00;8.23;;;;;;;7.81;64.17;99662.88;10351532;28;20104;-66
2022/11/03 09:13:40;;;;;;;17.40;7.40;;;;;;;7.96;64.35;99643.84;10359757;28;20050;-67
2022/11/03 09:18:42;;;;;;;19.58;8.38;;;;;;;8.07;64.08;99653.69;10373765;28;20516;-67
2022/11/03 09:23:44;;;;;;;18.05;7.88;;;;;;;8.28;64.00;99641.31;10348059;28;20065;-67
2022/11/03 09:28:46;;;;;;;18.23;8.00;;;;;;;8.50;63.68;99628.75;10356311;28;20037;-66
2022/11/03 09:33:47;;;;;;;17.95;7.40;;;;;;;8.72;63.36;99627.47;10355946;28;20497;-66
2022/11/03 09:38:49;;;;;;;20.63;9.20;;;;;;;8.89;63.36;99615.22;10356607;28;20230;-66
2022/11/03 09:43:53;;;;;;;19.77;8.65;;;;;;;9.06;63.26;99609.84;10374724;28;20544;-66
2022/11/03 09:48:55;;;;;;;19.02;8.65;;;;;;;9.17;63.14;99597.88;10360445;28;20141;-66
2022/11/03 09:54:02;;;;;;;21.00;9.20;;;;;;;9.42;62.81;99584.22;10290209;28;20050;-66
2022/11/03 09:59:16;;;;;;;19.02;8.85;;;;;;;9.50;63.23;99574.97;10287237;28;20288;-67
2022/11/03 10:04:27;;;;;;;15.40;8.98;;;;;;;9.67;62.85;99560.09;10264863;28;20061;-66
2022/11/03 10:09:29;;;;;;;18.90;8.85;;;;;;;10.01;62.79;99541.38;10278739;28;20551;-66
2022/11/03 10:14:31;;;;;;;20.85;9.73;;;;;;;10.26;62.39;99524.00;10284619;28;20053;-66
2022/11/03 10:19:32;;;;;;;18.92;9.70;;;;;;;10.09;62.44;99489.47;10275393;28;20051;-65
2022/11/03 10:24:34;;;;;;;24.95;10.27;;;;;;;10.24;62.42;99502.34;10285129;28;20058;-65
2022/11/03 10:29:36;;;;;;;20.48;10.10;;;;;;;10.49;62.03;99494.59;10265450;28;20057;-65
2022/11/03 10:34:41;;;;;;;18.27;8.50;;;;;;;10.72;62.17;99489.59;10296735;28;20463;-66
2022/11/03 10:39:44;;;;;;;19.33;8.50;;;;;;;10.92;61.63;99483.84;10276912;28;20074;-66
2022/11/03 10:44:46;;;;;;;20.92;8.90;;;;;;;11.09;61.69;99467.88;10265623;28;20070;-66
2022/11/03 10:49:48;;;;;;;19.50;8.95;;;;;;;11.07;62.25;99443.59;10266205;28;20395;-66
2022/11/03 10:54:52;;;;;;;17.90;8.38;;;;;;;11.07;62.41;99431.34;10272699;28;20057;-66
2022/11/03 10:59:54;;;;;;;18.05;9.18;;;;;;;11.32;62.03;99422.59;10272074;28;20054;-65
2022/11/03 11:05:01;;;;;;;18.85;8.20;;;;;;;11.53;61.86;99405.38;10275477;28;20051;-66
2022/11/03 11:10:12;;;;;;;21.05;8.85;;;;;;;11.48;61.71;99389.13;10273422;28;20043;-66
2022/11/03 11:15:49;;;;;;;21.50;8.32;;;;;;;11.23;61.76;99376.97;10274690;28;20423;-66
2022/11/03 11:20:50;;;;;;;20.23;7.60;;;;;;;11.30;61.77;99375.59;10280763;28;20562;-66
2022/11/03 11:26:10;;;;;;;17.38;7.78;;;;;;;11.51;61.32;99361.91;10283309;28;20062;-65
2022/11/03 11:31:21;;;;;;;15.48;7.28;;;;;;;11.52;61.59;99345.25;10281618;28;20407;-66
2022/11/03 11:36:24;;;;;;;16.73;7.70;;;;;;;11.62;61.46;99338.41;10275801;28;20218;-65
2022/11/03 11:42:03;;;;;;;21.55;8.23;;;;;;;11.61;61.65;99336.72;10265130;28;20054;-66
2022/11/03 11:47:26;;;;;;;19.85;7.88;;;;;;;11.39;62.34;99332.22;10286801;28;20101;-66
2022/11/03 11:52:29;;;;;;;16.17;7.22;;;;;;;11.61;61.97;99315.75;10272743;28;20773;-66
2022/11/03 11:57:33;;;;;;;18.08;6.47;;;;;;;11.64;62.10;99311.13;10273545;28;20423;-65
2022/11/03 12:02:35;;;;;;;13.80;5.15;;;;;;;11.78;61.57;99312.75;10276256;28;20435;-65
2022/11/03 12:07:37;;;;;;;18.83;6.93;;;;;;;11.96;61.59;99308.75;10283350;28;20057;-65
2022/11/03 12:12:40;;;;;;;17.83;6.85;;;;;;;12.04;61.55;99306.38;10267518;28;20054;-65
2022/11/03 12:17:41;;;;;;;11.57;3.83;;;;;;;11.94;60.81;99281.81;10269135;28;20054;-65
2022/11/03 12:22:43;;;;;;;11.07;4.03;;;;;;;11.96;60.37;99272.91;10277634;28;20065;-65
2022/11/03 12:27:45;;;;;;;13.25;3.80;;;;;;;11.89;60.14;99242.00;10273795;28;20531;-65
2022/11/03 12:32:46;;;;;;;15.00;4.40;;;;;;;11.79;60.26;99228.78;10275014;28;20403;-65
2022/11/03 12:37:48;;;;;;;15.02;4.85;;;;;;;11.80;60.12;99209.50;10282370;28;20079;-65
2022/11/03 12:42:50;;;;;;;16.02;5.60;;;;;;;11.70;59.95;99194.59;10262368;28;20050;-65
2022/11/03 12:47:51;;;;;;;14.68;4.70;;;;;;;11.83;59.55;99193.53;10267837;28;20250;-65
2022/11/03 12:52:53;;;;;;;15.27;4.38;;;;;;;11.95;59.39;99197.00;10280871;28;20529;-65
2022/11/03 12:57:55;;;;;;;15.90;4.30;;;;;;;12.02;59.43;99200.84;10268902;28;20051;-65
2022/11/03 13:02:56;;;;;;;14.05;4.90;;;;;;;12.04;59.37;99197.16;10279983;28;20129;-65
2022/11/03 13:07:58;;;;;;;13.13;4.78;;;;;;;11.99;59.52;99180.94;10279596;28;20057;-65
2022/11/03 13:13:00;;;;;;;16.63;4.47;;;;;;;11.97;59.45;99174.13;10292981;28;20288;-65
2022/11/03 13:18:04;;;;;;;16.83;4.50;;;;;;;11.89;59.41;99161.63;10266563;28;20047;-65
2022/11/03 13:23:14;;;;;;;13.32;4.45;;;;;;;11.90;59.42;99141.50;10291352;28;20194;-65
2022/11/03 13:28:22;;;;;;;13.00;4.38;;;;;;;11.77;59.65;99115.44;10265340;28;20062;-65
2022/11/03 13:33:24;;;;;;;15.93;4.72;;;;;;;11.68;59.54;99104.84;10278579;28;20207;-65
2022/11/03 13:38:25;;;;;;;20.95;5.00;;;;;;;11.58;60.06;99086.34;10291735;28;20050;-65
2022/11/03 13:43:27;;;;;;;13.82;4.78;;;;;;;11.44;60.25;99076.13;10299797;28;20062;-65
2022/11/03 13:48:29;;;;;;;14.85;5.70;;;;;;;11.41;60.33;99065.06;10273768;28;20081;-65
2022/11/03 13:53:51;;;;;;;14.63;5.20;;;;;;;11.35;60.63;99060.28;10266446;28;20050;-65
2022/11/03 13:59:13;;;;;;;14.82;5.10;;;;;;;11.25;60.68;99047.06;10295612;28;20511;-65
2022/11/03 14:04:30;;;;;;;14.98;6.07;;;;;;;11.17;61.21;99031.94;10295859;28;20049;-65
2022/11/03 14:09:47;;;;;;;15.65;5.20;;;;;;;11.13;61.33;99012.19;10279334;28;20097;-65
2022/11/03 14:14:49;;;;;;;15.82;5.50;;;;;;;11.06;61.36;98997.91;10279169;28;20043;-65
2022/11/03 14:19:52;;;;;;;15.52;5.30;;;;;;;11.12;61.46;99007.06;10266357;28;20514;-65
2022/11/03 14:25:00;;;;;;;15.65;5.40;;;;;;;11.06;61.65;98997.09;10295733;28;20086;-65
2022/11/03 14:30:03;;;;;;;13.80;5.32;;;;;;;10.97;61.85;98969.78;10269221;28;20880;-65
2022/11/03 14:35:06;;;;;;;18.02;5.60;;;;;;;10.84;62.41;98956.00;10275444;28;20058;-65
2022/11/03 14:42:02;;;;;;;13.48;5.20;;;;;;;10.87;62.20;98955.75;10272683;28;20458;-65
2022/11/03 14:45:30;;;;;;;14.95;5.25;;;;;;;10.93;62.07;98986.69;10261242;28;20047;-65
2022/11/03 14:50:32;;;;;;;14.82;5.30;;;;;;;10.94;61.83;98977.06;10291631;28;20534;-65
2022/11/03 14:55:34;;;;;;;10.85;4.82;;;;;;;10.93;62.22;98973.59;10272659;28;20341;-65
2022/11/03 15:00:35;;;;;;;13.18;5.38;;;;;;;11.00;62.25;98966.97;10270291;28;20663;-65
2022/11/03 15:05:43;;;;;;;11.95;5.72;;;;;;;11.02;61.76;98969.44;10278905;28;20061;-64
2022/11/03 15:10:45;;;;;;;13.98;5.50;;;;;;;10.93;61.96;98970.19;10274076;28;20109;-65
2022/11/03 15:15:46;;;;;;;16.48;5.90;;;;;;;10.86;62.30;98954.09;10260614;28;20495;-65
2022/11/03 15:20:48;;;;;;;15.93;5.15;;;;;;;10.91;62.32;98949.34;10288142;28;20081;-65
2022/11/03 15:25:50;;;;;;;13.32;5.38;;;;;;;11.04;62.36;98934.41;10263505;28;20055;-65
2022/11/03 15:30:52;;;;;;;15.85;6.03;;;;;;;11.14;62.43;98942.38;10263118;28;20511;-65
2022/11/03 15:35:53;;;;;;;19.25;7.70;;;;;;;11.15;63.22;98944.84;10263326;28;20047;-65
2022/11/03 15:41:14;;;;;;;17.63;8.25;;;;;;;11.12;63.72;98945.13;10263608;28;20105;-65
2022/11/03 15:46:17;;;;;;;16.97;7.20;;;;;;;10.98;64.07;98932.25;10298497;28;20177;-65
2022/11/03 15:51:18;;;;;;;22.23;7.43;;;;;;;10.84;64.93;98906.31;10285919;28;20250;-65
2022/11/03 15:56:20;;;;;;;17.15;7.25;;;;;;;10.82;65.25;98892.53;10271214;28;20046;-65
2022/11/03 16:01:22;;;;;;;17.20;7.20;;;;;;;10.83;65.82;98886.31;10287621;28;20352;-64
2022/11/03 16:06:24;;;;;;;20.65;8.88;;;;;;;10.80;65.92;98875.28;10270111;28;20053;-62
2022/11/03 16:11:45;;;;;;;20.30;9.45;;;;;;;10.49;66.76;98856.72;10270838;28;20550;-63
2022/11/03 16:16:47;;;;;;;20.70;9.77;;;;;;;10.46;66.96;98843.88;10268633;28;20486;-63
2022/11/03 16:21:50;;;;;;;18.90;9.55;;;;;;;10.47;67.07;98826.41;10272140;28;20407;-64
2022/11/03 16:26:52;;;;;;;26.05;10.18;;;;;;;10.31;67.61;98820.69;10267770;28;20045;-64
2022/11/03 16:31:53;;;;;;;31.92;13.02;;;;;;;10.24;68.21;98809.03;10284448;28;20058;-63
2022/11/03 16:36:56;;;;;;;24.73;12.02;;;;;;;10.21;68.30;98798.81;10267433;28;20075;-63
2022/11/03 16:42:00;;;;;;;32.17;11.93;;;;;;;10.18;68.43;98812.94;10287809;28;20501;-62
2022/11/03 16:47:04;;;;;;;29.17;13.13;;;;;;;10.26;68.59;98799.28;10272274;28;20113;-63
2022/11/03 16:52:07;;;;;;;23.83;12.55;;;;;;;10.18;68.88;98793.81;10263188;28;20349;-63
2022/11/03 16:57:11;;;;;;;29.98;14.13;;;;;;;10.23;68.91;98799.53;10267488;28;20367;-63
2022/11/03 17:02:13;;;;;;;29.77;12.65;;;;;;;10.38;68.65;98786.13;10264633;28;20066;-63
2022/11/03 17:07:18;;;;;;;32.72;15.93;;;;;;;10.44;68.62;98787.41;10267599;28;20043;-62
2022/11/03 17:12:20;;;;;;;34.55;17.02;;;;;;;10.33;68.76;98759.53;10270227;28;20133;-63
2022/11/03 17:17:21;;;;;;;30.58;14.48;;;;;;;10.32;68.73;98749.16;10284586;28;20050;-63
2022/11/03 17:22:23;;;;;;;31.65;16.13;;;;;;;10.30;69.05;98740.59;10261902;28;20521;-63
2022/11/03 17:27:37;;;;;;;26.17;13.70;;;;;;;10.21;69.61;98728.28;10280938;28;20478;-63
2022/11/03 17:32:42;;;;;;;18.80;11.43;;;;;;;10.06;69.62;98716.38;10273369;28;20666;-63
2022/11/03 17:37:44;;;;;;;18.50;10.10;;;;;;;10.09;69.56;98714.38;10266315;28;20051;-63
2022/11/03 17:42:47;;;;;;;16.60;8.13;;;;;;;10.14;69.23;98704.41;10267394;28;20050;-63
2022/11/03 17:47:50;;;;;;;27.20;16.02;;;;;;;10.11;69.58;98688.13;10285247;28;20058;-62
2022/11/03 17:52:52;;;;;;;30.45;16.50;;;;;;;10.03;69.95;98683.50;10263156;28;20050;-63
2022/11/03 17:57:57;;;;;;;28.05;16.00;;;;;;;10.08;69.93;98691.81;10273849;28;20386;-63
2022/11/03 18:03:00;;;;;;;24.48;14.60;;;;;;;10.18;70.05;98681.47;10263481;28;20061;-63
2022/11/03 18:08:06;;;;;;;25.02;11.70;;;;;;;10.11;70.19;98678.53;10262296;28;20054;-63
2022/11/03 18:13:15;;;;;;;23.15;12.48;;;;;;;10.10;70.30;98668.16;10265300;28;20046;-63
2022/11/03 18:18:19;;;;;;;17.23;9.63;;;;;;;10.14;70.38;98665.22;10262103;28;20521;-63
2022/11/03 18:23:25;;;;;;;23.00;12.07;;;;;;;10.31;69.97;98663.91;10264062;28;20081;-63
2022/11/03 18:28:27;;;;;;;26.65;15.35;;;;;;;10.42;69.33;98643.78;10265889;28;20486;-63
2022/11/03 18:33:35;;;;;;;27.30;15.13;;;;;;;10.46;69.31;98636.56;10276241;28;20525;-63
2022/11/03 18:38:40;;;;;;;23.40;12.88;;;;;;;10.33;69.69;98620.19;10262876;28;20495;-63
2022/11/03 18:43:42;;;;;;;27.85;13.50;;;;;;;10.41;69.48;98615.16;10271903;28;20043;-63
2022/11/03 18:48:43;;;;;;;21.80;11.32;;;;;;;10.40;69.59;98613.50;10263468;28;20043;-63
2022/11/03 18:53:45;;;;;;;26.20;14.68;;;;;;;10.41;69.58;98643.91;10277891;28;20051;-63
2022/11/03 18:58:51;;;;;;;51.50;28.08;;;;;;;10.42;69.69;98646.41;10262857;28;20059;-63
2022/11/03 19:03:53;;;;;;;31.38;19.45;;;;;;;10.21;69.88;98622.00;10274597;28;20053;-63
2022/11/03 19:08:58;;;;;;;17.30;10.00;;;;;;;10.16;70.43;98616.28;10262160;28;20396;-63
2022/11/03 19:14:00;;;;;;;34.45;18.55;;;;;;;10.26;70.17;98612.00;10270568;28;20046;-63
2022/11/03 19:19:02;;;;;;;28.70;18.02;;;;;;;10.35;70.14;98607.81;10270189;28;20049;-63
2022/11/03 19:24:04;;;;;;;17.90;8.40;;;;;;;10.33;70.29;98597.50;10279733;28;20046;-63
2022/11/03 19:29:12;;;;;;;16.02;7.07;;;;;;;10.29;70.61;98598.69;10280639;28;20038;-63
2022/11/03 19:34:17;;;;;;;18.48;8.13;;;;;;;10.17;71.05;98593.59;10271594;28;20053;-63
2022/11/03 19:39:22;;;;;;;19.17;8.82;;;;;;;10.20;70.99;98585.50;10284749;28;20057;-63
2022/11/03 19:44:23;;;;;;;20.52;8.65;;;;;;;10.20;71.20;98572.44;10272112;28;20533;-63
2022/11/03 19:49:26;;;;;;;15.23;7.80;;;;;;;10.18;71.30;98558.69;10272062;28;20055;-62
2022/11/03 19:54:28;;;;;;;13.55;8.20;;;;;;;10.19;71.46;98549.91;10279190;28;20054;-63
2022/11/03 19:59:30;;;;;;;15.95;7.72;;;;;;;10.28;71.05;98543.91;10279282;28;20547;-62
2022/11/03 20:04:31;;;;;;;16.52;8.35;;;;;;;10.35;70.98;98530.25;10276628;28;20047;-62
2022/11/03 20:09:35;;;;;;;15.10;7.68;;;;;;;10.38;70.89;98534.38;10278163;28;20081;-62
2022/11/03 20:14:37;;;;;;;13.20;7.07;;;;;;;10.33;71.22;98529.56;10282346;28;20050;-63
2022/11/03 20:19:42;;;;;;;12.50;7.30;;;;;;;10.42;71.03;98528.78;10292649;28;20062;-62
2022/11/03 20:24:49;;;;;;;13.23;6.90;;;;;;;10.54;70.71;98519.16;10287637;28;20090;-62
2022/11/03 20:29:51;;;;;;;14.07;7.20;;;;;;;10.52;70.87;98505.38;10287267;28;20046;-62
2022/11/03 20:34:54;;;;;;;11.70;6.90;;;;;;;10.55;70.99;98494.66;10291206;28;20053;-62
2022/11/03 20:39:57;;;;;;;13.52;7.75;;;;;;;10.48;71.09;98491.69;10285244;28;20530;-62
2022/11/03 20:44:59;;;;;;;16.02;10.20;;;;;;;10.56;70.98;98496.31;10304465;28;20050;-62
2022/11/03 20:50:00;;;;;;;19.25;10.43;;;;;;;10.63;70.80;98497.44;10295805;28;20059;-62
2022/11/03 20:55:20;;;;;;;25.30;15.48;;;;;;;10.66;70.91;98484.16;10278259;28;20295;-62
2022/11/03 21:00:28;;;;;;;20.33;13.27;;;;;;;10.70;70.87;98487.31;10270743;28;20063;-62
2022/11/03 21:05:30;;;;;;;29.73;17.95;;;;;;;10.68;70.88;98490.06;10264969;28;20057;-62
2022/11/03 21:10:32;;;;;;;15.00;10.50;;;;;;;10.69;71.00;98494.34;10284085;28;20069;-62
2022/11/03 21:21:14;;;;;;;16.45;8.85;;;;;;;10.91;70.86;98488.97;10274779;28;20447;-62
2022/11/03 21:26:21;;;;;;;14.90;7.80;;;;;;;10.91;70.75;98496.81;10288778;28;20060;-62
2022/11/03 21:31:23;;;;;;;16.88;10.10;;;;;;;10.97;70.72;98506.75;10267582;28;20054;-62
2022/11/03 21:36:25;;;;;;;17.20;9.52;;;;;;;10.99;70.76;98517.94;10267159;28;20057;-61
2022/11/03 21:46:47;;;;;;;28.50;17.27;;;;;;;10.95;70.95;98534.84;10267251;28;20264;-61
2022/11/03 21:51:49;;;;;;;11.32;6.82;;;;;;;10.98;70.89;98518.91;10279014;28;20050;-61
2022/11/03 21:56:51;;;;;;;7.95;5.55;;;;;;;11.00;70.98;98526.63;10286825;28;20081;-61
2022/11/03 22:01:53;;;;;;;9.93;5.07;;;;;;;10.95;70.99;98550.53;10269684;28;20055;-61
2022/11/03 22:06:57;;;;;;;7.78;5.28;;;;;;;11.02;70.92;98567.41;10273352;28;20435;-61
2022/11/03 22:11:59;;;;;;;9.10;5.43;;;;;;;11.11;70.89;98566.66;10269562;28;20113;-61
2022/11/03 22:17:01;;;;;;;14.95;8.25;;;;;;;11.16;70.66;98572.34;10292146;28;20526;-62
2022/11/03 22:27:33;;;;;;;7.07;4.50;;;;;;;11.20;70.53;98544.97;10270679;28;20051;-61
2022/11/03 22:32:35;;;;;;;8.88;4.88;;;;;;;11.20;70.67;98547.56;10265414;28;20073;-61
2022/11/03 22:37:37;;;;;;;6.43;4.10;;;;;;;11.23;70.67;98572.66;10265601;28;20047;-61
2022/11/03 22:47:58;;;;;;;6.20;4.10;;;;;;;11.20;70.78;98580.75;10266968;28;20039;-61
2022/11/03 22:54:08;;;;;;;6.13;3.85;;;;;;;11.21;70.53;98572.75;10269621;28;21029;-61
2022/11/03 22:58:21;;;;;;;6.93;3.72;;;;;;;11.18;70.61;98587.91;10274616;28;20138;-61
2022/11/03 23:03:33;;;;;;;5.28;3.33;;;;;;;11.09;70.67;98599.94;10296023;28;20176;-61
2022/11/03 23:08:36;;;;;;;5.13;3.25;;;;;;;11.00;70.57;98613.78;10285712;28;20402;-61
2022/11/03 23:13:38;;;;;;;5.43;2.67;;;;;;;10.98;70.53;98580.84;10273911;28;20546;-61
2022/11/03 23:29:21;;;;;;;5.03;2.20;;;;;;;10.83;70.36;98619.53;10271260;28;20058;-61
2022/11/03 23:34:23;;;;;;;4.15;2.28;;;;;;;10.87;70.12;98625.34;10273368;28;20054;-61
2022/11/03 23:39:25;;;;;;;7.20;2.28;;;;;;;10.90;70.08;98635.56;10289047;28;20407;-61
2022/11/03 23:48:44;;;;;;;3.35;2.00;;;;;;;10.98;70.03;98636.63;10278322;28;20563;-61
2022/11/03 23:49:48;;;;;;;4.05;2.17;;;;;;;10.87;69.72;98647.13;10279559;28;20046;-61
2022/11/03 23:54:50;;;;;;;4.47;1.98;;;;;;;10.94;69.41;98643.06;10307746;28;20507;-61
2022/11/03 23:59:52;;;;;;;3.78;1.90;;;;;;;11.00;69.26;98639.94;10278674;28;20074;-61
